sensor_id;sensor_type;location;lat;lon;timestamp;pressure;altitude;pressure_sealevel;temperature;humidity
31331;BME280;34067;39.548;-76.088;2023-03-14T00:02:19;100876.99;;;3.57;73.17
31331;BME280;34067;39.548;-76.088;2023-03-14T00:04:47;100876.28;;;3.77;72.40
31331;BME280;34067;39.548;-76.088;2023-03-14T00:07:15;100872.38;;;4.79;69.37
31331;BME280;34067;39.548;-76.088;2023-03-14T00:09:44;100870.36;;;4.47;68.61
31331;BME280;34067;39.548;-76.088;2023-03-14T00:12:12;100869.88;;;3.77;72.14
31331;BME280;34067;39.548;-76.088;2023-03-14T00:14:40;100864.99;;;4.37;69.97
31331;BME280;34067;39.548;-76.088;2023-03-14T00:17:09;100864.84;;;3.72;71.06
31331;BME280;34067;39.548;-76.088;2023-03-14T00:19:37;100861.38;;;3.23;70.64
31331;BME280;34067;39.548;-76.088;2023-03-14T00:22:05;100860.84;;;3.98;69.67
31331;BME280;34067;39.548;-76.088;2023-03-14T00:24:33;100865.79;;;4.72;67.05
31331;BME280;34067;39.548;-76.088;2023-03-14T00:27:01;100865.28;;;4.33;67.17
31331;BME280;34067;39.548;-76.088;2023-03-14T00:29:30;100874.69;;;2.71;71.43
31331;BME280;34067;39.548;-76.088;2023-03-14T00:31:58;100873.43;;;2.74;72.36
31331;BME280;34067;39.548;-76.088;2023-03-14T00:34:29;100868.79;;;3.11;71.47
31331;BME280;34067;39.548;-76.088;2023-03-14T00:36:57;100861.49;;;4.01;68.98
31331;BME280;34067;39.548;-76.088;2023-03-14T00:39:25;100862.42;;;2.54;73.68
31331;BME280;34067;39.548;-76.088;2023-03-14T00:41:54;100866.81;;;3.49;70.57
31331;BME280;34067;39.548;-76.088;2023-03-14T00:44:23;100877.32;;;3.16;73.43
31331;BME280;34067;39.548;-76.088;2023-03-14T00:46:51;100878.54;;;2.98;73.36
31331;BME280;34067;39.548;-76.088;2023-03-14T00:49:19;100868.15;;;2.68;74.95
31331;BME280;34067;39.548;-76.088;2023-03-14T00:51:47;100850.79;;;2.54;75.52
31331;BME280;34067;39.548;-76.088;2023-03-14T00:54:16;100862.24;;;2.46;76.76
31331;BME280;34067;39.548;-76.088;2023-03-14T00:56:44;100863.67;;;2.03;75.83
31331;BME280;34067;39.548;-76.088;2023-03-14T00:59:13;100860.69;;;2.28;73.22
31331;BME280;34067;39.548;-76.088;2023-03-14T01:01:41;100861.42;;;1.61;75.10
31331;BME280;34067;39.548;-76.088;2023-03-14T01:04:10;100857.69;;;2.30;73.58
31331;BME280;34067;39.548;-76.088;2023-03-14T01:06:39;100850.62;;;2.70;74.08
31331;BME280;34067;39.548;-76.088;2023-03-14T01:09:07;100845.81;;;2.32;74.48
31331;BME280;34067;39.548;-76.088;2023-03-14T01:11:36;100845.45;;;3.41;72.25
31331;BME280;34067;39.548;-76.088;2023-03-14T01:14:05;100848.67;;;2.55;73.31
31331;BME280;34067;39.548;-76.088;2023-03-14T01:16:35;100849.63;;;2.71;72.20
31331;BME280;34067;39.548;-76.088;2023-03-14T01:19:04;100854.32;;;2.64;71.79
31331;BME280;34067;39.548;-76.088;2023-03-14T01:21:34;100848.11;;;2.14;71.29
31331;BME280;34067;39.548;-76.088;2023-03-14T01:24:04;100854.11;;;2.43;71.41
31331;BME280;34067;39.548;-76.088;2023-03-14T01:26:34;100851.10;;;3.00;69.51
31331;BME280;34067;39.548;-76.088;2023-03-14T01:29:03;100854.94;;;2.59;71.34
31331;BME280;34067;39.548;-76.088;2023-03-14T01:31:32;100856.53;;;2.19;70.74
31331;BME280;34067;39.548;-76.088;2023-03-14T01:34:01;100857.92;;;3.21;71.26
31331;BME280;34067;39.548;-76.088;2023-03-14T01:36:29;100867.16;;;1.79;71.01
31331;BME280;34067;39.548;-76.088;2023-03-14T01:38:57;100865.27;;;2.37;69.81
31331;BME280;34067;39.548;-76.088;2023-03-14T01:41:26;100866.33;;;2.57;69.63
31331;BME280;34067;39.548;-76.088;2023-03-14T01:43:54;100867.13;;;1.98;71.64
31331;BME280;34067;39.548;-76.088;2023-03-14T01:46:34;100869.51;;;2.33;70.09
31331;BME280;34067;39.548;-76.088;2023-03-14T01:49:11;100875.03;;;2.05;70.88
31331;BME280;34067;39.548;-76.088;2023-03-14T01:51:46;100871.05;;;2.60;69.78
31331;BME280;34067;39.548;-76.088;2023-03-14T01:54:21;100868.34;;;1.67;69.84
31331;BME280;34067;39.548;-76.088;2023-03-14T01:56:54;100866.02;;;1.65;69.94
31331;BME280;34067;39.548;-76.088;2023-03-14T01:59:24;100871.98;;;1.51;71.46
31331;BME280;34067;39.548;-76.088;2023-03-14T02:01:55;100859.14;;;2.11;69.01
31331;BME280;34067;39.548;-76.088;2023-03-14T02:04:24;100862.49;;;2.33;68.16
31331;BME280;34067;39.548;-76.088;2023-03-14T02:06:59;100857.61;;;2.55;67.57
31331;BME280;34067;39.548;-76.088;2023-03-14T02:09:28;100851.26;;;2.05;68.47
31331;BME280;34067;39.548;-76.088;2023-03-14T02:11:58;100851.10;;;2.11;67.83
31331;BME280;34067;39.548;-76.088;2023-03-14T02:14:31;100847.27;;;1.87;68.60
31331;BME280;34067;39.548;-76.088;2023-03-14T02:17:02;100855.70;;;1.57;68.27
31331;BME280;34067;39.548;-76.088;2023-03-14T02:19:44;100837.98;;;1.82;67.78
31331;BME280;34067;39.548;-76.088;2023-03-14T02:22:16;100833.48;;;1.97;66.45
31331;BME280;34067;39.548;-76.088;2023-03-14T02:24:50;100833.73;;;1.52;66.67
31331;BME280;34067;39.548;-76.088;2023-03-14T02:27:22;100833.94;;;2.14;66.39
31331;BME280;34067;39.548;-76.088;2023-03-14T02:29:54;100834.10;;;2.28;64.88
31331;BME280;34067;39.548;-76.088;2023-03-14T02:32:26;100824.05;;;1.76;65.18
31331;BME280;34067;39.548;-76.088;2023-03-14T02:34:57;100826.08;;;1.47;65.31
31331;BME280;34067;39.548;-76.088;2023-03-14T02:37:32;100823.43;;;1.41;64.25
31331;BME280;34067;39.548;-76.088;2023-03-14T02:40:02;100834.64;;;2.47;63.40
31331;BME280;34067;39.548;-76.088;2023-03-14T02:42:30;100831.72;;;2.08;65.63
31331;BME280;34067;39.548;-76.088;2023-03-14T02:45:34;100836.66;;;1.79;66.10
31331;BME280;34067;39.548;-76.088;2023-03-14T02:48:05;100840.18;;;1.10;65.48
31331;BME280;34067;39.548;-76.088;2023-03-14T02:50:34;100831.75;;;1.35;65.99
31331;BME280;34067;39.548;-76.088;2023-03-14T02:53:03;100832.63;;;1.35;67.07
31331;BME280;34067;39.548;-76.088;2023-03-14T02:55:31;100829.66;;;1.00;66.75
31331;BME280;34067;39.548;-76.088;2023-03-14T02:57:59;100844.97;;;1.82;66.79
31331;BME280;34067;39.548;-76.088;2023-03-14T03:00:27;100834.46;;;1.17;67.51
31331;BME280;34067;39.548;-76.088;2023-03-14T03:02:55;100827.83;;;0.56;67.35
31331;BME280;34067;39.548;-76.088;2023-03-14T03:05:24;100838.97;;;1.04;67.62
31331;BME280;34067;39.548;-76.088;2023-03-14T03:07:52;100829.10;;;0.81;68.53
31331;BME280;34067;39.548;-76.088;2023-03-14T03:10:20;100821.37;;;1.30;68.44
31331;BME280;34067;39.548;-76.088;2023-03-14T03:12:48;100832.11;;;1.31;69.18
31331;BME280;34067;39.548;-76.088;2023-03-14T03:15:15;100829.45;;;1.44;68.43
31331;BME280;34067;39.548;-76.088;2023-03-14T03:17:44;100835.00;;;1.42;67.43
31331;BME280;34067;39.548;-76.088;2023-03-14T03:20:12;100828.27;;;0.41;68.60
31331;BME280;34067;39.548;-76.088;2023-03-14T03:22:39;100832.82;;;1.39;67.45
31331;BME280;34067;39.548;-76.088;2023-03-14T03:25:09;100837.84;;;0.52;68.87
31331;BME280;34067;39.548;-76.088;2023-03-14T03:27:38;100829.23;;;1.46;66.91
31331;BME280;34067;39.548;-76.088;2023-03-14T03:30:06;100826.72;;;0.79;67.81
31331;BME280;34067;39.548;-76.088;2023-03-14T03:32:34;100828.33;;;1.41;67.65
31331;BME280;34067;39.548;-76.088;2023-03-14T03:35:04;100815.87;;;1.26;66.04
31331;BME280;34067;39.548;-76.088;2023-03-14T03:37:33;100816.57;;;1.16;66.12
31331;BME280;34067;39.548;-76.088;2023-03-14T03:40:01;100820.05;;;1.63;65.59
31331;BME280;34067;39.548;-76.088;2023-03-14T03:42:30;100822.22;;;1.46;65.29
31331;BME280;34067;39.548;-76.088;2023-03-14T03:44:58;100816.33;;;0.84;67.03
31331;BME280;34067;39.548;-76.088;2023-03-14T03:47:27;100815.86;;;1.89;65.64
31331;BME280;34067;39.548;-76.088;2023-03-14T03:49:55;100818.41;;;1.57;65.53
31331;BME280;34067;39.548;-76.088;2023-03-14T03:52:23;100815.04;;;1.20;65.39
31331;BME280;34067;39.548;-76.088;2023-03-14T03:54:51;100813.93;;;1.10;66.63
31331;BME280;34067;39.548;-76.088;2023-03-14T03:57:19;100803.68;;;0.69;65.83
31331;BME280;34067;39.548;-76.088;2023-03-14T03:59:48;100808.49;;;1.19;65.61
31331;BME280;34067;39.548;-76.088;2023-03-14T04:02:15;100809.91;;;0.74;66.45
31331;BME280;34067;39.548;-76.088;2023-03-14T04:04:44;100811.97;;;1.10;66.15
31331;BME280;34067;39.548;-76.088;2023-03-14T04:07:12;100815.98;;;0.17;66.74
31331;BME280;34067;39.548;-76.088;2023-03-14T04:09:40;100817.06;;;0.93;66.42
31331;BME280;34067;39.548;-76.088;2023-03-14T04:12:07;100800.93;;;0.81;66.40
31331;BME280;34067;39.548;-76.088;2023-03-14T04:14:35;100808.04;;;0.44;65.23
31331;BME280;34067;39.548;-76.088;2023-03-14T04:17:04;100800.15;;;0.96;65.65
31331;BME280;34067;39.548;-76.088;2023-03-14T04:19:31;100800.42;;;0.33;65.10
31331;BME280;34067;39.548;-76.088;2023-03-14T04:22:00;100812.87;;;0.77;64.76
31331;BME280;34067;39.548;-76.088;2023-03-14T04:24:27;100800.72;;;0.29;66.42
31331;BME280;34067;39.548;-76.088;2023-03-14T04:26:55;100804.47;;;-0.09;66.31
31331;BME280;34067;39.548;-76.088;2023-03-14T04:29:23;100807.90;;;-0.11;66.30
31331;BME280;34067;39.548;-76.088;2023-03-14T04:31:50;100801.65;;;0.02;65.44
31331;BME280;34067;39.548;-76.088;2023-03-14T04:34:18;100793.80;;;0.80;64.36
31331;BME280;34067;39.548;-76.088;2023-03-14T04:36:46;100785.80;;;-0.42;64.39
31331;BME280;34067;39.548;-76.088;2023-03-14T04:39:15;100786.08;;;0.55;63.93
31331;BME280;34067;39.548;-76.088;2023-03-14T04:41:44;100788.77;;;0.71;62.81
31331;BME280;34067;39.548;-76.088;2023-03-14T04:44:13;100774.32;;;0.48;63.45
31331;BME280;34067;39.548;-76.088;2023-03-14T04:46:40;100771.63;;;0.31;63.71
31331;BME280;34067;39.548;-76.088;2023-03-14T04:49:08;100781.51;;;0.07;63.73
31331;BME280;34067;39.548;-76.088;2023-03-14T04:51:36;100780.07;;;-0.04;63.19
31331;BME280;34067;39.548;-76.088;2023-03-14T04:54:04;100780.50;;;-0.41;63.85
31331;BME280;34067;39.548;-76.088;2023-03-14T04:56:33;100764.47;;;0.12;62.95
31331;BME280;34067;39.548;-76.088;2023-03-14T04:59:00;100771.01;;;-0.22;63.59
31331;BME280;34067;39.548;-76.088;2023-03-14T05:03:11;100754.70;;;0.00;62.81
31331;BME280;34067;39.548;-76.088;2023-03-14T05:05:39;100768.30;;;-0.74;63.90
31331;BME280;34067;39.548;-76.088;2023-03-14T05:08:07;100761.43;;;0.41;64.17
31331;BME280;34067;39.548;-76.088;2023-03-14T05:10:36;100761.87;;;-0.26;63.41
31331;BME280;34067;39.548;-76.088;2023-03-14T05:13:04;100755.57;;;-0.33;64.65
31331;BME280;34067;39.548;-76.088;2023-03-14T05:15:32;100758.26;;;-0.94;64.85
31331;BME280;34067;39.548;-76.088;2023-03-14T05:18:00;100762.99;;;-0.94;65.28
31331;BME280;34067;39.548;-76.088;2023-03-14T05:20:29;100751.53;;;-0.49;65.35
31331;BME280;34067;39.548;-76.088;2023-03-14T05:22:58;100776.83;;;-0.93;67.30
31331;BME280;34067;39.548;-76.088;2023-03-14T05:25:25;100773.84;;;-0.54;67.69
31331;BME280;34067;39.548;-76.088;2023-03-14T05:27:54;100772.42;;;-0.56;66.66
31331;BME280;34067;39.548;-76.088;2023-03-14T05:30:22;100761.57;;;-1.10;66.15
31331;BME280;34067;39.548;-76.088;2023-03-14T05:32:50;100770.49;;;-0.31;64.48
31331;BME280;34067;39.548;-76.088;2023-03-14T05:35:18;100760.78;;;-0.31;64.29
31331;BME280;34067;39.548;-76.088;2023-03-14T05:37:46;100760.89;;;-0.22;62.96
31331;BME280;34067;39.548;-76.088;2023-03-14T05:40:14;100761.64;;;-0.31;62.06
31331;BME280;34067;39.548;-76.088;2023-03-14T05:42:43;100768.91;;;-0.35;61.90
31331;BME280;34067;39.548;-76.088;2023-03-14T05:45:11;100767.78;;;-0.60;60.33
31331;BME280;34067;39.548;-76.088;2023-03-14T05:47:39;100754.18;;;-1.15;61.64
31331;BME280;34067;39.548;-76.088;2023-03-14T05:50:09;100758.33;;;-0.77;62.11
31331;BME280;34067;39.548;-76.088;2023-03-14T05:52:37;100774.71;;;-0.96;60.66
31331;BME280;34067;39.548;-76.088;2023-03-14T05:55:05;100767.23;;;-0.39;60.55
31331;BME280;34067;39.548;-76.088;2023-03-14T05:57:34;100778.03;;;-0.68;60.09
31331;BME280;34067;39.548;-76.088;2023-03-14T06:00:01;100765.10;;;-0.73;60.35
31331;BME280;34067;39.548;-76.088;2023-03-14T06:02:29;100763.17;;;-0.42;59.45
31331;BME280;34067;39.548;-76.088;2023-03-14T06:04:57;100761.07;;;-0.57;60.32
31331;BME280;34067;39.548;-76.088;2023-03-14T06:07:24;100750.47;;;-1.37;60.13
31331;BME280;34067;39.548;-76.088;2023-03-14T06:09:52;100755.51;;;-0.96;59.75
31331;BME280;34067;39.548;-76.088;2023-03-14T06:12:20;100774.38;;;-1.48;59.31
31331;BME280;34067;39.548;-76.088;2023-03-14T06:14:48;100762.09;;;-0.78;58.61
31331;BME280;34067;39.548;-76.088;2023-03-14T06:17:16;100758.84;;;-1.05;57.40
31331;BME280;34067;39.548;-76.088;2023-03-14T06:19:44;100763.31;;;-0.79;56.70
31331;BME280;34067;39.548;-76.088;2023-03-14T06:22:12;100764.85;;;-1.08;56.18
31331;BME280;34067;39.548;-76.088;2023-03-14T06:24:40;100763.90;;;-0.94;56.01
31331;BME280;34067;39.548;-76.088;2023-03-14T06:27:08;100759.77;;;-1.51;56.79
31331;BME280;34067;39.548;-76.088;2023-03-14T06:29:35;100758.89;;;-1.53;56.36
31331;BME280;34067;39.548;-76.088;2023-03-14T06:32:03;100750.62;;;-1.01;56.00
31331;BME280;34067;39.548;-76.088;2023-03-14T06:34:31;100745.76;;;-0.29;55.05
31331;BME280;34067;39.548;-76.088;2023-03-14T06:36:59;100750.17;;;-0.98;55.82
31331;BME280;34067;39.548;-76.088;2023-03-14T06:39:26;100749.13;;;-1.84;57.05
31331;BME280;34067;39.548;-76.088;2023-03-14T06:41:54;100751.83;;;-1.03;55.91
31331;BME280;34067;39.548;-76.088;2023-03-14T06:44:22;100750.42;;;-0.75;55.79
31331;BME280;34067;39.548;-76.088;2023-03-14T06:46:50;100753.67;;;-0.94;55.17
31331;BME280;34067;39.548;-76.088;2023-03-14T06:49:18;100749.72;;;-1.17;57.18
31331;BME280;34067;39.548;-76.088;2023-03-14T06:51:46;100754.95;;;-0.72;56.56
31331;BME280;34067;39.548;-76.088;2023-03-14T06:54:14;100742.39;;;-1.06;56.81
31331;BME280;34067;39.548;-76.088;2023-03-14T06:56:42;100747.45;;;-0.62;55.67
31331;BME280;34067;39.548;-76.088;2023-03-14T06:59:09;100742.53;;;-0.79;55.94
31331;BME280;34067;39.548;-76.088;2023-03-14T07:01:37;100740.63;;;-0.38;55.31
31331;BME280;34067;39.548;-76.088;2023-03-14T07:04:04;100734.08;;;-0.94;55.33
31331;BME280;34067;39.548;-76.088;2023-03-14T07:06:33;100746.60;;;-0.47;55.93
31331;BME280;34067;39.548;-76.088;2023-03-14T07:09:02;100755.44;;;-1.09;55.63
31331;BME280;34067;39.548;-76.088;2023-03-14T07:11:30;100747.37;;;-1.88;56.14
31331;BME280;34067;39.548;-76.088;2023-03-14T07:13:58;100750.37;;;-1.67;55.29
31331;BME280;34067;39.548;-76.088;2023-03-14T07:16:26;100745.34;;;-0.53;54.96
31331;BME280;34067;39.548;-76.088;2023-03-14T07:18:54;100756.56;;;-1.49;55.41
31331;BME280;34067;39.548;-76.088;2023-03-14T07:21:22;100742.03;;;-0.29;54.34
31331;BME280;34067;39.548;-76.088;2023-03-14T07:23:51;100743.46;;;-0.94;54.31
31331;BME280;34067;39.548;-76.088;2023-03-14T07:26:19;100747.06;;;-1.32;54.30
31331;BME280;34067;39.548;-76.088;2023-03-14T07:28:47;100742.77;;;-0.97;53.55
31331;BME280;34067;39.548;-76.088;2023-03-14T07:31:15;100736.10;;;-2.03;53.91
31331;BME280;34067;39.548;-76.088;2023-03-14T07:33:43;100736.39;;;-1.72;54.34
31331;BME280;34067;39.548;-76.088;2023-03-14T07:36:12;100733.14;;;-1.13;53.76
31331;BME280;34067;39.548;-76.088;2023-03-14T07:38:40;100721.25;;;-1.66;53.83
31331;BME280;34067;39.548;-76.088;2023-03-14T07:41:08;100713.99;;;-2.04;54.37
31331;BME280;34067;39.548;-76.088;2023-03-14T07:43:36;100714.06;;;-1.75;53.28
31331;BME280;34067;39.548;-76.088;2023-03-14T07:46:04;100705.66;;;-1.07;52.27
31331;BME280;34067;39.548;-76.088;2023-03-14T07:48:33;100706.61;;;-2.05;53.16
31331;BME280;34067;39.548;-76.088;2023-03-14T07:51:01;100721.66;;;-1.94;53.73
31331;BME280;34067;39.548;-76.088;2023-03-14T07:53:29;100708.46;;;-1.08;52.75
31331;BME280;34067;39.548;-76.088;2023-03-14T07:55:57;100709.61;;;-1.40;52.04
31331;BME280;34067;39.548;-76.088;2023-03-14T07:58:25;100705.08;;;-1.54;52.73
31331;BME280;34067;39.548;-76.088;2023-03-14T08:00:53;100706.70;;;-1.69;52.46
31331;BME280;34067;39.548;-76.088;2023-03-14T08:03:20;100709.44;;;-1.53;52.66
31331;BME280;34067;39.548;-76.088;2023-03-14T08:05:48;100699.26;;;-1.91;52.32
31331;BME280;34067;39.548;-76.088;2023-03-14T08:08:17;100706.21;;;-2.06;53.07
31331;BME280;34067;39.548;-76.088;2023-03-14T08:10:45;100691.76;;;-2.02;52.87
31331;BME280;34067;39.548;-76.088;2023-03-14T08:13:13;100708.24;;;-2.46;53.09
31331;BME280;34067;39.548;-76.088;2023-03-14T08:15:41;100692.92;;;-2.18;53.07
31331;BME280;34067;39.548;-76.088;2023-03-14T08:18:10;100689.55;;;-2.03;52.69
31331;BME280;34067;39.548;-76.088;2023-03-14T08:20:38;100687.34;;;-1.89;52.52
31331;BME280;34067;39.548;-76.088;2023-03-14T08:23:06;100699.73;;;-2.42;53.04
31331;BME280;34067;39.548;-76.088;2023-03-14T08:25:34;100688.70;;;-1.93;52.89
31331;BME280;34067;39.548;-76.088;2023-03-14T08:28:02;100699.80;;;-2.76;53.75
31331;BME280;34067;39.548;-76.088;2023-03-14T08:30:30;100684.16;;;-1.97;52.88
31331;BME280;34067;39.548;-76.088;2023-03-14T08:32:57;100682.77;;;-2.95;53.76
31331;BME280;34067;39.548;-76.088;2023-03-14T08:35:26;100683.75;;;-2.39;53.33
31331;BME280;34067;39.548;-76.088;2023-03-14T08:37:54;100675.98;;;-2.91;53.93
31331;BME280;34067;39.548;-76.088;2023-03-14T08:40:22;100678.42;;;-2.15;53.12
31331;BME280;34067;39.548;-76.088;2023-03-14T08:42:49;100681.23;;;-3.36;53.56
31331;BME280;34067;39.548;-76.088;2023-03-14T08:45:17;100681.16;;;-2.19;52.71
31331;BME280;34067;39.548;-76.088;2023-03-14T08:47:45;100683.41;;;-1.99;52.26
31331;BME280;34067;39.548;-76.088;2023-03-14T08:50:13;100681.85;;;-2.48;52.51
31331;BME280;34067;39.548;-76.088;2023-03-14T08:52:41;100688.71;;;-1.83;51.62
31331;BME280;34067;39.548;-76.088;2023-03-14T08:55:09;100673.92;;;-2.14;52.24
31331;BME280;34067;39.548;-76.088;2023-03-14T08:57:37;100674.46;;;-2.02;50.71
31331;BME280;34067;39.548;-76.088;2023-03-14T09:00:06;100681.61;;;-1.77;50.70
31331;BME280;34067;39.548;-76.088;2023-03-14T09:02:34;100673.18;;;-1.80;50.56
31331;BME280;34067;39.548;-76.088;2023-03-14T09:05:02;100683.57;;;-1.95;50.69
31331;BME280;34067;39.548;-76.088;2023-03-14T09:07:30;100682.59;;;-2.03;50.68
31331;BME280;34067;39.548;-76.088;2023-03-14T09:09:58;100677.77;;;-2.55;50.91
31331;BME280;34067;39.548;-76.088;2023-03-14T09:12:25;100676.95;;;-1.42;49.79
31331;BME280;34067;39.548;-76.088;2023-03-14T09:14:53;100684.81;;;-1.36;48.67
31331;BME280;34067;39.548;-76.088;2023-03-14T09:17:21;100686.64;;;-3.07;50.61
31331;BME280;34067;39.548;-76.088;2023-03-14T09:19:49;100688.31;;;-2.82;51.72
31331;BME280;34067;39.548;-76.088;2023-03-14T09:22:17;100688.99;;;-2.01;49.92
31331;BME280;34067;39.548;-76.088;2023-03-14T09:24:44;100687.41;;;-1.47;49.30
31331;BME280;34067;39.548;-76.088;2023-03-14T09:27:12;100706.18;;;-2.64;51.53
31331;BME280;34067;39.548;-76.088;2023-03-14T09:29:41;100686.89;;;-2.58;50.23
31331;BME280;34067;39.548;-76.088;2023-03-14T09:32:09;100683.35;;;-1.86;50.86
31331;BME280;34067;39.548;-76.088;2023-03-14T09:34:36;100681.69;;;-1.25;49.64
31331;BME280;34067;39.548;-76.088;2023-03-14T09:37:04;100680.93;;;-2.43;49.25
31331;BME280;34067;39.548;-76.088;2023-03-14T09:39:31;100684.07;;;-2.44;49.46
31331;BME280;34067;39.548;-76.088;2023-03-14T09:42:04;100678.48;;;-0.68;47.85
31331;BME280;34067;39.548;-76.088;2023-03-14T09:44:37;100691.23;;;-2.05;49.12
31331;BME280;34067;39.548;-76.088;2023-03-14T09:47:10;100683.49;;;-1.83;49.89
31331;BME280;34067;39.548;-76.088;2023-03-14T09:49:40;100699.82;;;-2.94;50.42
31331;BME280;34067;39.548;-76.088;2023-03-14T09:52:13;100682.32;;;-3.10;51.36
31331;BME280;34067;39.548;-76.088;2023-03-14T09:54:45;100680.33;;;-2.30;51.50
31331;BME280;34067;39.548;-76.088;2023-03-14T09:57:17;100696.60;;;-2.92;51.38
31331;BME280;34067;39.548;-76.088;2023-03-14T09:59:46;100713.47;;;-2.92;51.34
31331;BME280;34067;39.548;-76.088;2023-03-14T10:02:20;100688.49;;;-2.81;51.52
31331;BME280;34067;39.548;-76.088;2023-03-14T10:04:50;100689.52;;;-2.60;51.96
31331;BME280;34067;39.548;-76.088;2023-03-14T10:07:23;100687.79;;;-2.59;51.92
31331;BME280;34067;39.548;-76.088;2023-03-14T10:09:53;100702.29;;;-2.86;52.95
31331;BME280;34067;39.548;-76.088;2023-03-14T10:12:31;100704.52;;;-3.20;53.75
31331;BME280;34067;39.548;-76.088;2023-03-14T10:15:03;100724.86;;;-2.82;53.85
31331;BME280;34067;39.548;-76.088;2023-03-14T10:17:39;100712.81;;;-2.88;53.95
31331;BME280;34067;39.548;-76.088;2023-03-14T10:20:28;100706.04;;;-2.47;55.00
31331;BME280;34067;39.548;-76.088;2023-03-14T10:22:56;100692.76;;;-2.69;56.49
31331;BME280;34067;39.548;-76.088;2023-03-14T10:25:28;100696.39;;;-2.52;55.36
31331;BME280;34067;39.548;-76.088;2023-03-14T10:27:57;100716.24;;;-2.96;55.97
31331;BME280;34067;39.548;-76.088;2023-03-14T10:30:33;100708.00;;;-2.82;56.84
31331;BME280;34067;39.548;-76.088;2023-03-14T10:33:09;100723.22;;;-3.36;59.26
31331;BME280;34067;39.548;-76.088;2023-03-14T10:35:37;100728.29;;;-3.33;59.40
31331;BME280;34067;39.548;-76.088;2023-03-14T10:38:10;100710.35;;;-2.38;58.23
31331;BME280;34067;39.548;-76.088;2023-03-14T10:40:46;100745.17;;;-3.23;59.71
31331;BME280;34067;39.548;-76.088;2023-03-14T10:43:17;100751.70;;;-3.41;62.34
31331;BME280;34067;39.548;-76.088;2023-03-14T10:45:52;100722.79;;;-2.83;62.02
31331;BME280;34067;39.548;-76.088;2023-03-14T10:48:23;100767.01;;;-3.36;63.04
31331;BME280;34067;39.548;-76.088;2023-03-14T10:50:57;100742.94;;;-3.37;66.19
31331;BME280;34067;39.548;-76.088;2023-03-14T10:53:26;100738.89;;;-3.29;66.01
31331;BME280;34067;39.548;-76.088;2023-03-14T10:55:56;100728.38;;;-3.40;65.91
31331;BME280;34067;39.548;-76.088;2023-03-14T10:58:27;100735.01;;;-3.37;65.28
31331;BME280;34067;39.548;-76.088;2023-03-14T11:01:06;100740.57;;;-3.26;66.63
31331;BME280;34067;39.548;-76.088;2023-03-14T11:03:44;100762.27;;;-3.66;71.70
31331;BME280;34067;39.548;-76.088;2023-03-14T11:06:20;100752.29;;;-3.73;73.69
31331;BME280;34067;39.548;-76.088;2023-03-14T11:08:58;100785.59;;;-3.94;75.02
31331;BME280;34067;39.548;-76.088;2023-03-14T11:11:29;100776.90;;;-3.84;74.39
31331;BME280;34067;39.548;-76.088;2023-03-14T11:14:08;100752.62;;;-3.94;75.40
31331;BME280;34067;39.548;-76.088;2023-03-14T11:16:46;100753.71;;;-3.17;74.20
31331;BME280;34067;39.548;-76.088;2023-03-14T11:19:38;100793.31;;;-3.73;76.10
31331;BME280;34067;39.548;-76.088;2023-03-14T11:22:20;100767.62;;;-4.22;80.10
31331;BME280;34067;39.548;-76.088;2023-03-14T11:24:57;100769.38;;;-4.63;81.92
31331;BME280;34067;39.548;-76.088;2023-03-14T11:27:39;100765.49;;;-3.99;82.75
31331;BME280;34067;39.548;-76.088;2023-03-14T11:30:18;100783.08;;;-3.92;81.99
31331;BME280;34067;39.548;-76.088;2023-03-14T11:32:54;100774.93;;;-4.05;82.29
31331;BME280;34067;39.548;-76.088;2023-03-14T11:35:29;100767.08;;;-3.63;82.31
31331;BME280;34067;39.548;-76.088;2023-03-14T11:38:09;100772.64;;;-4.27;81.94
31331;BME280;34067;39.548;-76.088;2023-03-14T11:40:39;100771.83;;;-3.84;84.24
31331;BME280;34067;39.548;-76.088;2023-03-14T11:43:15;100782.21;;;-3.65;84.53
31331;BME280;34067;39.548;-76.088;2023-03-14T11:45:45;100783.72;;;-4.17;85.69
31331;BME280;34067;39.548;-76.088;2023-03-14T11:48:24;100779.90;;;-3.85;86.66
31331;BME280;34067;39.548;-76.088;2023-03-14T11:50:58;100792.75;;;-4.31;88.12
31331;BME280;34067;39.548;-76.088;2023-03-14T11:53:39;100771.59;;;-4.24;89.04
31331;BME280;34067;39.548;-76.088;2023-03-14T11:56:13;100775.22;;;-3.78;86.24
31331;BME280;34067;39.548;-76.088;2023-03-14T11:58:51;100771.48;;;-3.98;89.05
31331;BME280;34067;39.548;-76.088;2023-03-14T12:01:22;100794.99;;;-3.67;86.80
31331;BME280;34067;39.548;-76.088;2023-03-14T12:03:58;100782.23;;;-3.78;88.08
31331;BME280;34067;39.548;-76.088;2023-03-14T12:06:35;100778.83;;;-4.11;87.89
31331;BME280;34067;39.548;-76.088;2023-03-14T12:09:07;100776.19;;;-4.01;88.09
31331;BME280;34067;39.548;-76.088;2023-03-14T12:11:40;100778.85;;;-3.87;86.87
31331;BME280;34067;39.548;-76.088;2023-03-14T12:14:21;100784.58;;;-3.19;85.50
31331;BME280;34067;39.548;-76.088;2023-03-14T12:16:54;100802.24;;;-3.49;84.35
31331;BME280;34067;39.548;-76.088;2023-03-14T12:19:32;100788.34;;;-2.96;84.40
31331;BME280;34067;39.548;-76.088;2023-03-14T12:22:12;100788.13;;;-3.24;84.12
31331;BME280;34067;39.548;-76.088;2023-03-14T12:24:48;100799.02;;;-3.15;82.02
31331;BME280;34067;39.548;-76.088;2023-03-14T12:27:43;100778.91;;;-2.15;80.82
31331;BME280;34067;39.548;-76.088;2023-03-14T12:30:23;100817.76;;;-3.31;83.31
31331;BME280;34067;39.548;-76.088;2023-03-14T12:34:03;100796.76;;;-3.34;83.80
31331;BME280;34067;39.548;-76.088;2023-03-14T12:36:54;100787.81;;;-3.94;83.95
31331;BME280;34067;39.548;-76.088;2023-03-14T12:39:34;100808.71;;;-3.61;83.86
31331;BME280;34067;39.548;-76.088;2023-03-14T12:42:07;100780.63;;;-3.40;84.28
31331;BME280;34067;39.548;-76.088;2023-03-14T12:44:41;100783.35;;;-3.83;80.48
31331;BME280;34067;39.548;-76.088;2023-03-14T12:48:19;100784.23;;;-3.16;82.41
31331;BME280;34067;39.548;-76.088;2023-03-14T12:50:55;100778.29;;;-2.98;79.36
31331;BME280;34067;39.548;-76.088;2023-03-14T12:54:45;100780.64;;;-3.17;79.63